Time;durP1;ratioP1;P1;durP2;ratioP2;P2;SDS_P1;SDS_P2;PMS_P1;PMS_P2;Temp;Humidity;BMP_temperature;BMP_pressure;BME280_temperature;BME280_humidity;BME280_pressure;Samples;Min_cycle;Max_cycle;Signal;HPM_P1;HPM_P2
2021/01/11 00:02:26;;;;;;;32.28;15.95;;;;;;;-3.07;100.00;101243.28;5013245;28;19920;-71
2021/01/11 00:05:12;;;;;;;29.98;16.17;;;;;;;-3.08;100.00;101248.50;5013327;28;20410;-70
2021/01/11 00:07:56;;;;;;;25.02;13.82;;;;;;;-3.11;100.00;101248.59;4998916;28;20097;-70
2021/01/11 00:10:40;;;;;;;;;;;;;;;-3.14;100.00;101240.84;5013407;28;20048;-70
2021/01/11 00:13:24;;;;;;;25.88;14.52;;;;;;;-3.17;100.00;101244.38;5012940;28;19919;-70
2021/01/11 00:16:10;;;;;;;;;;;;;;;-3.21;100.00;101245.34;5013558;28;20414;-70
2021/01/11 00:18:54;;;;;;;27.65;13.05;;;;;;;-3.26;100.00;101239.38;5014075;28;20381;-70
2021/01/11 00:21:38;;;;;;;23.30;14.02;;;;;;;-3.28;100.00;101235.06;5014032;28;20064;-71
2021/01/11 00:24:21;;;;;;;;;;;;;;;-3.32;100.00;101234.31;5013158;28;20052;-70
2021/01/11 00:27:06;;;;;;;24.88;13.05;;;;;;;-3.34;100.00;101243.91;5012990;28;19920;-71
2021/01/11 00:29:50;;;;;;;28.08;14.95;;;;;;;-3.38;100.00;101231.84;5013595;28;20218;-71
2021/01/11 00:32:34;;;;;;;;;;;;;;;-3.40;100.00;101237.97;5014274;28;20052;-70
2021/01/11 00:35:19;;;;;;;26.50;13.25;;;;;;;-3.47;100.00;101232.03;5012607;28;20294;-70
2021/01/11 00:38:03;;;;;;;29.40;14.07;;;;;;;-3.49;100.00;101239.03;5013734;28;20045;-69
2021/01/11 00:40:47;;;;;;;31.27;15.43;;;;;;;-3.51;100.00;101232.13;5012523;28;20100;-71
2021/01/11 00:43:31;;;;;;;;;;;;;;;-3.56;100.00;101227.03;5013898;28;20104;-70
2021/01/11 00:46:22;;;;;;;33.72;15.70;;;;;;;-3.61;100.00;101239.31;5012776;28;20051;-71
2021/01/11 00:49:06;;;;;;;29.60;15.45;;;;;;;-3.63;100.00;101233.28;5013489;28;20049;-71
2021/01/11 00:51:50;;;;;;;;;;;;;;;-3.60;100.00;101235.81;5013126;28;20091;-70
2021/01/11 00:54:34;;;;;;;28.73;15.05;;;;;;;-3.58;100.00;101241.84;5013663;28;19921;-71
2021/01/11 00:57:19;;;;;;;28.23;16.30;;;;;;;-3.58;100.00;101243.59;5013538;28;20096;-70
2021/01/11 01:00:09;;;;;;;31.45;17.05;;;;;;;-3.57;100.00;101240.13;5012322;28;20112;-70
2021/01/11 01:02:53;;;;;;;30.30;17.90;;;;;;;-3.55;100.00;101248.75;5013275;28;20516;-71
2021/01/11 01:05:37;;;;;;;31.88;17.13;;;;;;;-3.52;100.00;101241.72;5012875;28;20056;-71
2021/01/11 01:08:21;;;;;;;33.58;16.77;;;;;;;-3.52;100.00;101251.28;5013504;28;20048;-71
2021/01/11 01:11:08;;;;;;;;;;;;;;;-3.49;100.00;101254.69;5012612;28;20141;-71
2021/01/11 01:13:53;;;;;;;30.58;15.32;;;;;;;-3.46;100.00;101258.97;5013477;28;20376;-70
2021/01/11 01:16:37;;;;;;;29.33;15.55;;;;;;;-3.48;100.00;101256.41;5013119;28;20510;-70
2021/01/11 01:19:21;;;;;;;;;;;;;;;-3.53;100.00;101254.78;5015003;28;20099;-71
2021/01/11 01:22:06;;;;;;;29.60;14.77;;;;;;;-3.56;100.00;101253.09;5016153;28;20003;-71
2021/01/11 01:24:50;;;;;;;29.17;15.40;;;;;;;-3.59;100.00;101258.38;5017273;28;20044;-70
2021/01/11 01:27:34;;;;;;;31.40;16.60;;;;;;;-3.62;100.00;101263.66;5016017;28;20096;-71
2021/01/11 01:30:19;;;;;;;30.90;16.10;;;;;;;-3.59;100.00;101267.94;5017361;28;20096;-71
2021/01/11 01:33:03;;;;;;;31.20;15.85;;;;;;;-3.57;100.00;101267.00;5002308;28;20465;-70
2021/01/11 01:35:47;;;;;;;34.25;17.45;;;;;;;-3.58;100.00;101269.63;5015977;28;20104;-71
2021/01/11 01:38:31;;;;;;;34.28;17.52;;;;;;;-3.58;100.00;101275.72;5016334;28;20057;-71
2021/01/11 01:41:15;;;;;;;33.05;16.65;;;;;;;-3.60;100.00;101272.31;5015691;28;20057;-70
2021/01/11 01:43:59;;;;;;;;;;;;;;;-3.57;100.00;101259.19;5016373;28;20125;-70
2021/01/11 01:46:43;;;;;;;32.63;17.05;;;;;;;-3.54;100.00;101255.69;5017121;28;19967;-70
2021/01/11 01:49:28;;;;;;;35.35;17.35;;;;;;;-3.54;100.00;101258.28;5015363;28;20474;-70
2021/01/11 01:52:11;;;;;;;;;;;;;;;-3.57;100.00;101260.97;5017237;28;20112;-70
2021/01/11 01:54:56;;;;;;;;;;;;;;;-3.58;100.00;101273.13;5017081;28;19920;-71
2021/01/11 01:57:41;;;;;;;33.60;16.80;;;;;;;-3.58;100.00;101267.91;5015626;28;19936;-70
2021/01/11 02:00:25;;;;;;;34.00;17.35;;;;;;;-3.60;100.00;101267.09;5016427;28;20087;-70
2021/01/11 02:03:09;;;;;;;34.30;18.02;;;;;;;-3.61;100.00;101264.50;5015556;28;20141;-70
2021/01/11 02:05:53;;;;;;;32.28;17.17;;;;;;;-3.59;100.00;101263.59;5016566;28;20080;-70
2021/01/11 02:08:43;;;;;;;31.48;15.95;;;;;;;-3.58;100.00;101259.22;5001909;28;20044;-70
2021/01/11 02:11:41;;;;;;;32.55;17.75;;;;;;;-3.63;100.00;101248.91;5016161;28;20092;-70
2021/01/11 02:14:44;;;;;;;33.05;18.55;;;;;;;-3.67;100.00;101249.84;5001728;28;20056;-71
2021/01/11 02:17:33;;;;;;;32.15;17.67;;;;;;;-3.70;100.00;101255.16;5015163;28;20121;-70
2021/01/11 02:20:47;;;;;;;33.13;17.48;;;;;;;-3.73;100.00;101257.81;5015030;28;20513;-70
2021/01/11 02:24:03;;;;;;;32.63;17.40;;;;;;;-3.75;100.00;101259.56;5015942;28;20048;-70
2021/01/11 02:26:59;;;;;;;30.67;16.85;;;;;;;-3.72;100.00;101258.66;5015055;28;20511;-70
2021/01/11 02:30:17;;;;;;;33.25;15.85;;;;;;;-3.76;100.00;101255.25;5014586;28;20545;-70
2021/01/11 02:33:05;;;;;;;31.15;16.90;;;;;;;-3.75;100.00;101256.13;5015052;28;20506;-71
2021/01/11 02:35:49;;;;;;;34.05;17.23;;;;;;;-3.76;100.00;101260.47;5015771;28;20517;-70
2021/01/11 02:38:34;;;;;;;30.58;16.70;;;;;;;-3.71;100.00;101250.81;5015560;28;20552;-70
2021/01/11 02:41:17;;;;;;;34.92;17.65;;;;;;;-3.63;100.00;101253.25;5014482;28;20103;-71
2021/01/11 02:44:02;;;;;;;35.55;17.80;;;;;;;-3.65;100.00;101258.50;5014816;28;20084;-70
2021/01/11 02:46:47;;;;;;;37.20;18.23;;;;;;;-3.67;100.00;101259.44;5000972;28;20570;-70
2021/01/11 02:49:38;;;;;;;;;;;;;;;-3.67;100.00;101265.50;5015716;28;20044;-71
2021/01/11 02:52:42;;;;;;;29.35;16.55;;;;;;;-3.70;100.00;101262.97;5014665;28;19924;-69
2021/01/11 02:55:33;;;;;;;30.80;16.80;;;;;;;-3.67;100.00;101270.69;5014358;28;20061;-71
2021/01/11 02:58:29;;;;;;;32.72;17.33;;;;;;;-3.71;100.00;101256.03;5014250;28;20573;-70
2021/01/11 03:01:16;;;;;;;31.30;17.17;;;;;;;-3.76;100.00;101265.69;5015449;28;20067;-71
2021/01/11 03:04:01;;;;;;;28.25;16.40;;;;;;;-3.78;100.00;101258.78;5000377;28;20056;-71
2021/01/11 03:07:02;;;;;;;34.30;17.23;;;;;;;-3.80;100.00;101263.16;5015100;28;20048;-71
2021/01/11 03:09:47;;;;;;;31.05;16.17;;;;;;;-3.80;100.00;101269.25;5014055;28;20416;-70
2021/01/11 03:12:32;;;;;;;28.52;15.75;;;;;;;-3.77;100.00;101269.19;5015261;28;20140;-70
2021/01/11 03:15:18;;;;;;;;;;;;;;;-3.81;100.00;101262.31;5014349;28;20132;-70
2021/01/11 03:18:03;;;;;;;29.60;15.57;;;;;;;-3.83;100.00;101266.72;5015096;28;19920;-70
2021/01/11 03:20:47;;;;;;;29.08;15.80;;;;;;;-3.89;100.00;101259.00;5014742;28;20053;-70
2021/01/11 03:23:31;;;;;;;32.13;16.55;;;;;;;-3.92;100.00;101261.69;5014390;28;20106;-71
2021/01/11 03:26:25;;;;;;;30.10;16.48;;;;;;;-3.98;100.00;101259.19;5013975;28;20049;-71
2021/01/11 03:29:09;;;;;;;34.53;18.23;;;;;;;-4.01;100.00;101251.44;5013599;28;20091;-69
2021/01/11 03:31:52;;;;;;;;;;;;;;;-4.04;100.00;101254.09;5014328;28;20501;-70
2021/01/11 03:34:36;;;;;;;30.98;16.45;;;;;;;-4.03;100.00;101255.84;5013832;28;20393;-70
2021/01/11 03:37:20;;;;;;;;;;;;;;;-4.05;100.00;101252.38;5015172;28;20041;-70
2021/01/11 03:40:05;;;;;;;31.52;15.82;;;;;;;-4.05;100.00;101252.38;5014857;28;19923;-70
2021/01/11 03:42:49;;;;;;;32.13;17.17;;;;;;;-4.04;100.00;101254.09;5013873;28;20049;-70
2021/01/11 03:45:33;;;;;;;;;;;;;;;-4.01;100.00;101247.97;5014171;28;20053;-71
2021/01/11 03:48:17;;;;;;;30.70;16.83;;;;;;;-4.04;100.00;101243.66;5013491;28;19921;-70
2021/01/11 03:51:02;;;;;;;35.78;17.73;;;;;;;-4.05;100.00;101247.16;5014108;28;20548;-71
2021/01/11 03:53:46;;;;;;;34.85;18.77;;;;;;;-4.04;100.00;101245.44;5013480;28;20045;-70
2021/01/11 03:56:29;;;;;;;;;;;;;;;-4.08;100.00;101247.22;5013615;28;20048;-71
2021/01/11 03:59:13;;;;;;;29.80;16.65;;;;;;;-4.10;100.00;101246.41;5013386;28;19925;-71
2021/01/11 04:01:57;;;;;;;;;;;;;;;-4.12;100.00;101244.72;5014849;28;20477;-70
2021/01/11 04:04:41;;;;;;;32.15;16.45;;;;;;;-4.14;100.00;101242.16;5014584;28;19968;-70
2021/01/11 04:07:25;;;;;;;27.40;15.50;;;;;;;-4.19;100.00;101233.56;5013024;28;20422;-70
2021/01/11 04:10:09;;;;;;;;;;;;;;;-4.24;100.00;101232.81;5014436;28;20053;-70
2021/01/11 04:12:53;;;;;;;28.30;15.07;;;;;;;-4.28;100.00;101233.75;5014242;28;19919;-71
2021/01/11 04:15:37;;;;;;;;;;;;;;;-4.31;100.00;101228.59;5013347;28;20065;-71
2021/01/11 04:18:21;;;;;;;25.38;13.05;;;;;;;-4.32;100.00;101229.50;5013796;28;19963;-70
2021/01/11 04:21:05;;;;;;;30.10;16.05;;;;;;;-4.34;100.00;101212.19;5012728;28;20065;-70
2021/01/11 04:23:50;;;;;;;32.45;17.13;;;;;;;-4.37;100.00;101223.50;5013334;28;20072;-71
2021/01/11 04:26:34;;;;;;;28.90;15.52;;;;;;;-4.40;100.00;101228.78;4999056;28;20056;-70
2021/01/11 04:29:18;;;;;;;29.58;15.85;;;;;;;-4.45;100.00;101230.59;5013647;28;20060;-71
2021/01/11 04:32:03;;;;;;;29.80;15.57;;;;;;;-4.47;100.00;101226.31;5014068;28;20049;-71
2021/01/11 04:34:47;;;;;;;30.40;16.13;;;;;;;-4.49;100.00;101223.72;5013602;28;20060;-70
2021/01/11 04:37:31;;;;;;;33.10;15.88;;;;;;;-4.54;100.00;101225.56;5012800;28;20506;-70
2021/01/11 04:40:15;;;;;;;29.27;15.70;;;;;;;-4.54;100.00;101225.56;5012899;28;20517;-70
2021/01/11 04:43:04;;;;;;;31.00;16.80;;;;;;;-4.54;100.00;101237.72;5013566;28;20092;-70
2021/01/11 04:45:48;;;;;;;30.25;17.25;;;;;;;-4.55;100.00;101236.88;5012491;28;20084;-68
2021/01/11 04:48:31;;;;;;;;;;;;;;;-4.54;100.00;101235.97;5013136;28;20498;-70
2021/01/11 04:51:15;;;;;;;33.83;17.75;;;;;;;-4.54;100.00;101235.97;5037912;23;19928;-66
2021/01/11 04:53:59;;;;;;;;;;;;;;;-4.53;100.00;101239.44;5017928;28;20052;-66
2021/01/11 04:56:46;;;;;;;;;;;;;;;-4.48;100.00;101240.22;5033678;28;19924;-66
2021/01/11 04:59:32;;;;;;;34.75;16.27;;;;;;;-4.46;100.00;101246.25;5033274;28;19919;-65
2021/01/11 05:02:21;;;;;;;30.17;16.83;;;;;;;-4.43;100.00;101244.44;5018007;28;20086;-65
2021/01/11 05:05:05;;;;;;;29.48;17.50;;;;;;;-4.43;100.00;101248.78;5018289;28;20047;-66
2021/01/11 05:07:49;;;;;;;32.65;16.50;;;;;;;-4.46;100.00;101246.25;5018320;28;20052;-66
2021/01/11 05:10:35;;;;;;;32.38;17.00;;;;;;;-4.49;100.00;101247.16;5017896;28;20079;-66
2021/01/11 05:13:19;;;;;;;32.80;17.67;;;;;;;-4.51;100.00;101251.53;5018176;28;20047;-65
2021/01/11 05:16:10;;;;;;;31.15;17.02;;;;;;;-4.51;100.00;101246.31;5033157;28;20052;-66
2021/01/11 05:19:00;;;;;;;37.92;18.58;;;;;;;-4.51;100.00;101251.53;5004019;28;20107;-66
2021/01/11 05:21:46;;;;;;;34.67;18.33;;;;;;;-4.52;100.00;101252.41;5017827;28;20070;-65
2021/01/11 05:24:37;;;;;;;32.22;18.48;;;;;;;-4.52;100.00;101244.63;5032824;28;20509;-66
2021/01/11 05:27:23;;;;;;;34.67;17.90;;;;;;;-4.52;100.00;101241.13;5004073;28;20087;-66
2021/01/11 05:30:09;;;;;;;33.72;16.88;;;;;;;-4.50;100.00;101252.38;5017995;28;20052;-66
2021/01/11 05:32:53;;;;;;;36.85;17.55;;;;;;;-4.50;100.00;101241.97;5032998;28;20087;-66
2021/01/11 05:35:38;;;;;;;33.10;18.05;;;;;;;-4.49;100.00;101246.31;5032931;28;20114;-66
2021/01/11 05:38:22;;;;;;;32.13;17.00;;;;;;;-4.51;100.00;101240.25;5032845;28;20048;-65
2021/01/11 05:41:22;;;;;;;36.63;18.17;;;;;;;-4.53;100.00;101235.09;5017970;28;20052;-65
2021/01/11 05:44:14;;;;;;;37.22;17.13;;;;;;;-4.52;100.00;101234.22;5032627;28;20142;-64
2021/01/11 05:47:01;;;;;;;40.42;19.33;;;;;;;-4.52;100.00;101229.00;5017739;28;20049;-64
2021/01/11 05:49:44;;;;;;;35.88;19.00;;;;;;;-4.52;100.00;101226.41;5017706;28;20529;-67
2021/01/11 05:52:32;;;;;;;39.53;19.27;;;;;;;-4.49;100.00;101228.94;5017644;28;20525;-65
2021/01/11 05:55:21;;;;;;;40.28;18.77;;;;;;;-4.49;100.00;101225.50;5017796;28;20052;-67
2021/01/11 05:58:05;;;;;;;36.72;18.95;;;;;;;-4.49;100.00;101228.94;5017374;28;20052;-66
2021/01/11 06:00:50;;;;;;;39.75;19.33;;;;;;;-4.48;100.00;101225.44;5032526;28;20083;-68
2021/01/11 06:03:34;;;;;;;41.25;20.40;;;;;;;-4.49;100.00;101226.34;5032671;28;20516;-65
2021/01/11 06:06:19;;;;;;;37.35;19.90;;;;;;;-4.50;100.00;101232.44;5035841;28;20135;-67
2021/01/11 06:09:04;;;;;;;36.03;18.75;;;;;;;-4.52;100.00;101234.22;5021325;28;20045;-63
2021/01/11 06:11:49;;;;;;;36.65;19.05;;;;;;;-4.56;100.00;101232.53;5035921;28;20051;-65
2021/01/11 06:14:34;;;;;;;32.10;16.35;;;;;;;-4.59;100.00;101237.78;5007033;28;20071;-65
2021/01/11 06:17:18;;;;;;;29.23;16.42;;;;;;;-4.65;100.00;101243.13;5021154;28;20056;-67
2021/01/11 06:20:03;;;;;;;32.17;16.20;;;;;;;-4.70;100.00;101239.72;5035879;28;20076;-66
2021/01/11 06:22:47;;;;;;;35.78;17.30;;;;;;;-4.75;100.00;101235.50;5035965;28;20123;-66
2021/01/11 06:25:35;;;;;;;31.85;17.90;;;;;;;-4.77;100.00;101240.72;5035824;28;20095;-67
2021/01/11 06:28:33;;;;;;;34.50;17.55;;;;;;;-4.81;100.00;101238.19;5020694;28;20049;-66
2021/01/11 06:31:17;;;;;;;33.75;17.70;;;;;;;-4.86;100.00;101230.44;5035434;28;20052;-64
2021/01/11 06:34:02;;;;;;;33.70;16.85;;;;;;;-4.89;100.00;101227.91;5020734;28;20091;-67
2021/01/11 06:36:45;;;;;;;33.33;16.45;;;;;;;-4.93;100.00;101228.88;5035426;28;20434;-67
2021/01/11 06:39:30;;;;;;;;;;;;;;;-4.96;100.00;101223.72;5021132;28;20456;-65
2021/01/11 06:42:14;;;;;;;;;;;;;;;-4.98;100.00;101235.03;5020975;28;19966;-65
2021/01/11 06:44:58;;;;;;;29.73;13.80;;;;;;;-5.02;100.00;101221.22;5035305;28;20324;-67
2021/01/11 06:47:42;;;;;;;31.38;16.38;;;;;;;-5.05;100.00;101224.75;5020480;28;20496;-65
2021/01/11 06:50:26;;;;;;;;;;;;;;;-5.08;100.00;101225.66;5020659;28;20052;-67
2021/01/11 06:53:10;;;;;;;29.48;15.43;;;;;;;-5.11;100.00;101235.22;5020182;28;19920;-67
2021/01/11 06:56:04;;;;;;;35.50;16.38;;;;;;;-5.12;100.00;101230.91;5020259;28;20052;-66
2021/01/11 06:58:48;;;;;;;;;;;;;;;-5.11;100.00;101240.44;5035422;28;20048;-67
2021/01/11 07:01:36;;;;;;;34.55;15.25;;;;;;;-5.12;100.00;101249.13;5020223;28;20396;-67
2021/01/11 07:04:36;;;;;;;38.30;18.67;;;;;;;-5.11;100.00;101251.69;5035231;28;20075;-67
2021/01/11 07:07:24;;;;;;;31.02;17.00;;;;;;;-5.10;100.00;101247.34;5021917;28;20099;-67
2021/01/11 07:10:08;;;;;;;36.22;18.40;;;;;;;-5.10;100.00;101249.94;5039540;28;20052;-68
2021/01/11 07:13:17;;;;;;;31.65;16.40;;;;;;;-5.10;100.00;101244.75;5020108;28;20060;-67
2021/01/11 07:16:03;;;;;;;35.03;16.33;;;;;;;-5.13;100.00;101250.84;5033812;28;20044;-67
2021/01/11 07:18:47;;;;;;;33.60;16.70;;;;;;;-5.12;100.00;101251.72;5034862;28;20048;-67
2021/01/11 07:21:34;;;;;;;27.23;14.85;;;;;;;-5.11;100.00;101261.22;5034711;28;20126;-67
2021/01/11 07:24:18;;;;;;;30.83;16.17;;;;;;;-5.13;100.00;101263.00;5035158;28;20052;-67
2021/01/11 07:27:01;;;;;;;;;;;;;;;-5.15;100.00;101264.78;5020255;28;20071;-67
2021/01/11 07:29:46;;;;;;;;;;;;;;;-5.17;100.00;101266.50;5035199;28;19962;-67
2021/01/11 07:32:31;;;;;;;31.08;16.48;;;;;;;-5.17;100.00;101256.09;5019582;28;19936;-66
2021/01/11 07:35:15;;;;;;;33.75;17.05;;;;;;;-5.18;100.00;101259.59;5019639;28;20056;-67
2021/01/11 07:37:59;;;;;;;33.38;16.95;;;;;;;-5.22;100.00;101270.94;5034557;28;20474;-67
2021/01/11 07:40:43;;;;;;;31.20;16.13;;;;;;;-5.18;100.00;101270.88;5019369;28;20426;-66
2021/01/11 07:43:27;;;;;;;29.13;15.40;;;;;;;-5.16;100.00;101268.22;5034691;28;20100;-67
2021/01/11 07:46:11;;;;;;;39.00;17.35;;;;;;;-5.12;100.00;101269.91;5019387;28;20057;-67
2021/01/11 07:49:10;;;;;;;35.13;17.92;;;;;;;-5.07;100.00;101273.28;5019120;28;20460;-67
2021/01/11 07:51:56;;;;;;;33.85;16.90;;;;;;;-5.05;100.00;101262.00;5018809;28;20088;-66
2021/01/11 07:54:40;;;;;;;32.45;15.75;;;;;;;-4.99;100.00;101267.09;5019076;28;20044;-65
2021/01/11 07:57:29;;;;;;;28.15;15.45;;;;;;;-4.95;100.00;101263.56;5019187;28;20156;-66
2021/01/11 08:00:15;;;;;;;32.05;15.57;;;;;;;-4.90;100.00;101282.56;5019104;28;20057;-68
2021/01/11 08:02:59;;;;;;;32.90;16.75;;;;;;;-4.83;100.00;101274.63;5034071;28;20423;-65
2021/01/11 08:05:44;;;;;;;32.80;16.73;;;;;;;-4.81;100.00;101270.25;5034094;28;20056;-65
2021/01/11 08:08:33;;;;;;;31.67;15.68;;;;;;;-4.79;100.00;101276.28;5019079;28;20043;-65
2021/01/11 08:11:17;;;;;;;31.60;15.63;;;;;;;-4.74;100.00;101271.88;5018618;28;20525;-66
2021/01/11 08:14:07;;;;;;;30.52;15.77;;;;;;;-4.67;100.00;101283.88;5005049;28;20052;-67
2021/01/11 08:16:51;;;;;;;35.00;16.95;;;;;;;-4.57;100.00;101272.44;5018832;28;20095;-67
2021/01/11 08:19:35;;;;;;;33.33;15.98;;;;;;;-4.42;100.00;101269.59;5018877;28;20048;-67
2021/01/11 08:22:19;;;;;;;;;;;;;;;-4.28;100.00;101261.53;5018901;28;20095;-65
2021/01/11 08:25:04;;;;;;;;;;;;;;;-4.17;100.00;101262.19;5019611;28;19935;-65
2021/01/11 08:27:53;;;;;;;30.90;15.38;;;;;;;-4.02;100.00;101262.75;5033272;28;19963;-67
2021/01/11 08:30:37;;;;;;;33.33;16.65;;;;;;;-3.84;100.00;101262.38;5033343;28;20111;-67
2021/01/11 08:33:21;;;;;;;;;;;;;;;-3.70;100.00;101247.31;5034100;28;20048;-65
2021/01/11 08:36:34;;;;;;;38.22;18.13;;;;;;;-3.51;100.00;101264.28;5018375;28;20327;-68
2021/01/11 08:39:19;;;;;;;28.43;16.83;;;;;;;-3.26;100.00;101272.44;5026736;28;20060;-64
2021/01/11 08:42:05;;;;;;;32.53;17.80;;;;;;;-2.61;100.00;101275.16;5033472;28;20551;-68
2021/01/11 08:44:50;;;;;;;35.80;18.60;;;;;;;-0.44;100.00;101268.69;5033418;28;20049;-65
2021/01/11 08:47:39;;;;;;;26.77;14.27;;;;;;;2.08;98.37;101267.44;5033105;28;20044;-65
2021/01/11 08:50:24;;;;;;;22.75;12.52;;;;;;;4.64;75.98;101264.31;5032928;28;20067;-66
2021/01/11 08:53:32;;;;;;;23.25;12.18;;;;;;;7.15;61.41;101246.41;5033432;28;20146;-68
2021/01/11 08:56:27;;;;;;;23.10;13.60;;;;;;;9.25;49.77;101250.25;5033217;28;20567;-67
2021/01/11 08:59:11;;;;;;;20.88;13.40;;;;;;;10.99;45.23;101257.00;5033097;28;20045;-67
2021/01/11 09:01:55;;;;;;;20.45;13.60;;;;;;;12.38;39.87;101268.38;5018025;28;20406;-67
2021/01/11 09:04:39;;;;;;;22.52;14.23;;;;;;;13.62;37.40;101265.19;5018323;28;20523;-67
2021/01/11 09:07:30;;;;;;;21.63;12.98;;;;;;;14.46;34.56;101256.41;5018288;28;20056;-67
2021/01/11 09:10:30;;;;;;;19.52;13.60;;;;;;;15.55;32.21;101253.66;5017873;28;20044;-68
2021/01/11 09:13:18;;;;;;;18.42;12.80;;;;;;;16.24;29.70;101252.75;5018605;28;20096;-67
2021/01/11 09:16:12;;;;;;;18.50;13.25;;;;;;;17.00;28.98;101254.59;5018167;28;20096;-67
2021/01/11 09:19:13;;;;;;;18.13;13.35;;;;;;;17.82;28.18;101239.34;5032798;28;20045;-67
2021/01/11 09:22:16;;;;;;;17.35;13.73;;;;;;;18.47;25.66;101247.28;5032803;28;20449;-67
2021/01/11 09:25:09;;;;;;;18.90;13.68;;;;;;;17.51;28.29;101256.34;5032968;28;20052;-67
2021/01/11 09:27:53;;;;;;;17.33;13.93;;;;;;;18.02;24.84;101256.91;5018148;28;20462;-67
2021/01/11 09:30:36;;;;;;;16.73;13.18;;;;;;;16.24;27.53;101258.16;5032950;28;20057;-67
2021/01/11 09:33:20;;;;;;;19.65;14.70;;;;;;;13.77;30.49;101274.50;5018133;28;20160;-65
2021/01/11 09:36:05;;;;;;;17.67;13.20;;;;;;;12.97;31.95;101274.78;5032849;28;20103;-65
2021/01/11 09:38:49;;;;;;;19.50;14.10;;;;;;;13.30;33.13;101274.44;5033031;28;20053;-66
2021/01/11 09:41:50;;;;;;;18.80;14.77;;;;;;;13.65;31.12;101272.13;5021468;28;20132;-66
2021/01/11 09:44:34;;;;;;;21.70;15.68;;;;;;;12.98;33.55;101285.34;5036559;28;20060;-66
2021/01/11 09:47:18;;;;;;;21.23;14.68;;;;;;;12.88;31.53;101288.91;5008097;28;20132;-66
2021/01/11 09:50:04;;;;;;;21.00;15.73;;;;;;;11.45;34.83;101287.00;5021729;28;20056;-66
2021/01/11 09:52:48;;;;;;;16.58;12.75;;;;;;;10.63;36.31;101281.25;5021597;28;20141;-66
2021/01/11 09:55:32;;;;;;;18.95;13.30;;;;;;;11.60;35.23;101283.13;5036397;28;20049;-68
2021/01/11 09:58:16;;;;;;;20.15;13.32;;;;;;;10.65;37.11;101284.66;5021383;28;20132;-66
2021/01/11 10:01:00;;;;;;;20.83;13.65;;;;;;;10.25;38.43;101275.38;5036371;28;20056;-66
2021/01/11 10:03:44;;;;;;;18.70;13.25;;;;;;;11.92;35.79;101270.59;5036132;28;20053;-67
2021/01/11 10:06:28;;;;;;;19.15;13.27;;;;;;;12.62;34.14;101265.41;5021098;28;20115;-66
2021/01/11 10:09:16;;;;;;;19.80;13.77;;;;;;;11.44;36.31;101263.09;5021284;28;20450;-68
2021/01/11 10:12:04;;;;;;;21.33;14.73;;;;;;;12.56;34.84;101250.75;5020929;28;20103;-66
2021/01/11 10:14:48;;;;;;;21.13;14.10;;;;;;;11.04;36.16;101252.13;5020690;28;20092;-66
2021/01/11 10:17:33;;;;;;;21.30;13.95;;;;;;;10.93;37.21;101246.81;5021247;28;20406;-63
2021/01/11 10:20:17;;;;;;;24.35;14.68;;;;;;;9.61;40.28;101259.06;5021015;28;20075;-66
2021/01/11 10:23:01;;;;;;;19.52;13.95;;;;;;;11.73;38.36;101258.88;5036089;28;20099;-66
2021/01/11 10:25:45;;;;;;;21.65;14.23;;;;;;;13.84;33.76;101250.66;5021059;28;20052;-67
2021/01/11 10:28:29;;;;;;;21.67;14.57;;;;;;;15.44;30.52;101250.31;5035649;28;20068;-66
2021/01/11 10:31:13;;;;;;;21.70;15.02;;;;;;;16.58;28.30;101245.63;5035774;28;20049;-66
2021/01/11 10:33:57;;;;;;;21.00;15.07;;;;;;;16.05;29.01;101242.19;5020655;28;20410;-67
2021/01/11 10:36:45;;;;;;;19.45;14.18;;;;;;;16.97;28.79;101246.84;5020394;28;20083;-66
2021/01/11 10:39:29;;;;;;;18.92;14.35;;;;;;;18.08;26.62;101241.88;5020929;28;20123;-66
2021/01/11 10:42:13;;;;;;;21.45;14.80;;;;;;;17.20;26.79;101241.72;5035443;28;20149;-66
2021/01/11 10:44:58;;;;;;;20.52;14.43;;;;;;;16.21;27.48;101231.56;5035604;28;20128;-66
2021/01/11 10:47:42;;;;;;;18.35;14.25;;;;;;;17.09;27.48;101239.34;5020738;28;20067;-66
2021/01/11 10:50:28;;;;;;;19.92;14.88;;;;;;;17.49;27.87;101232.22;5006352;28;20106;-66
2021/01/11 10:53:12;;;;;;;21.95;14.35;;;;;;;17.74;26.88;101231.28;5021917;28;20056;-66
2021/01/11 10:55:56;;;;;;;18.35;14.32;;;;;;;18.35;26.26;101230.78;5035126;28;20091;-66
2021/01/11 10:58:40;;;;;;;;;;;;;;;19.19;25.89;101232.75;5020786;28;20513;-66
2021/01/11 11:01:25;;;;;;;18.23;14.43;;;;;;;19.93;23.76;101225.69;5020127;28;19920;-66
2021/01/11 11:04:10;;;;;;;18.65;13.85;;;;;;;19.03;24.90;101221.97;5019987;28;20052;-66
2021/01/11 11:07:01;;;;;;;17.85;14.73;;;;;;;16.68;27.44;101224.81;5020148;28;20057;-66
2021/01/11 11:09:45;;;;;;;21.08;14.32;;;;;;;15.70;28.93;101217.16;5019840;28;20118;-66
2021/01/11 11:12:29;;;;;;;19.85;14.05;;;;;;;15.08;29.72;101227.91;5019776;28;20048;-68
2021/01/11 11:15:14;;;;;;;19.45;13.77;;;;;;;14.88;30.33;101226.31;5020060;28;20131;-67
2021/01/11 11:17:58;;;;;;;19.13;13.90;;;;;;;14.82;30.40;101223.38;5019739;28;20098;-67
2021/01/11 11:20:44;;;;;;;21.77;14.23;;;;;;;14.31;31.12;101222.97;5005980;28;20060;-66
2021/01/11 11:23:28;;;;;;;19.15;13.63;;;;;;;13.88;31.60;101219.94;5034938;28;20410;-66
2021/01/11 11:26:12;;;;;;;20.02;13.38;;;;;;;12.21;34.77;101220.00;5034749;28;20140;-66
2021/01/11 11:28:56;;;;;;;22.88;13.80;;;;;;;13.79;33.03;101207.38;5034810;28;20095;-66
2021/01/11 11:31:40;;;;;;;19.80;14.55;;;;;;;14.40;33.60;101204.16;5034427;28;20521;-67
2021/01/11 11:34:25;;;;;;;23.20;14.93;;;;;;;15.42;29.89;101198.59;5019477;28;20098;-67
2021/01/11 11:37:10;;;;;;;20.13;14.85;;;;;;;15.19;30.41;101197.31;5034251;28;20104;-66
2021/01/11 11:39:54;;;;;;;23.42;14.60;;;;;;;16.40;29.23;101187.47;5019341;28;20532;-67
2021/01/11 11:42:38;;;;;;;19.38;14.95;;;;;;;16.06;29.45;101184.69;5019300;28;20078;-67
2021/01/11 11:45:22;;;;;;;21.40;16.00;;;;;;;16.34;29.18;101185.38;5019205;28;20103;-66
2021/01/11 11:48:06;;;;;;;18.92;14.68;;;;;;;16.16;29.25;101185.44;5019414;28;20087;-67
2021/01/11 11:50:50;;;;;;;20.77;14.13;;;;;;;16.18;28.51;101188.81;5019211;28;20076;-67
2021/01/11 11:53:34;;;;;;;20.42;14.65;;;;;;;14.67;31.38;101179.22;5005494;28;20102;-66
2021/01/11 11:56:18;;;;;;;19.73;14.60;;;;;;;13.66;32.63;101182.72;5034311;28;20564;-67
2021/01/11 11:59:04;;;;;;;22.45;15.73;;;;;;;14.28;32.05;101177.69;5033918;28;20524;-67
2021/01/11 12:01:48;;;;;;;21.27;15.02;;;;;;;12.82;33.76;101182.41;5033747;28;20187;-66
2021/01/11 12:04:32;;;;;;;21.23;14.20;;;;;;;11.51;36.17;101170.81;5034135;28;20099;-66
2021/01/11 12:07:16;;;;;;;21.17;14.27;;;;;;;10.21;38.90;101173.63;5019067;28;20044;-66
2021/01/11 12:10:00;;;;;;;20.83;14.07;;;;;;;9.62;41.70;101161.38;5019035;28;20078;-66
2021/01/11 12:12:47;;;;;;;21.00;14.25;;;;;;;10.02;41.18;101155.56;5018809;28;20052;-66
2021/01/11 12:15:31;;;;;;;22.80;14.45;;;;;;;11.87;37.31;101149.06;5033765;28;20103;-66
2021/01/11 12:18:15;;;;;;;22.23;13.50;;;;;;;11.44;36.88;101146.47;5033796;28;20505;-66
2021/01/11 12:20:59;;;;;;;22.15;13.98;;;;;;;11.07;38.65;101142.47;5018818;28;20059;-67
2021/01/11 12:23:43;;;;;;;20.88;14.00;;;;;;;10.38;39.40;101142.88;5033841;28;20056;-66
2021/01/11 12:26:28;;;;;;;22.42;14.75;;;;;;;10.30;40.22;101133.78;5033504;28;20142;-66
2021/01/11 12:29:12;;;;;;;23.20;13.77;;;;;;;9.08;42.01;101133.59;5018739;28;20092;-67
2021/01/11 12:31:56;;;;;;;23.92;14.57;;;;;;;7.06;48.19;101146.25;5018541;28;20133;-66
2021/01/11 12:34:42;;;;;;;23.95;13.18;;;;;;;5.94;52.08;101150.91;5033705;28;20115;-66
2021/01/11 12:37:26;;;;;;;23.48;11.95;;;;;;;5.99;51.63;101147.03;5018802;28;20088;-66
2021/01/11 12:40:10;;;;;;;23.08;13.10;;;;;;;5.40;54.53;101139.19;5018621;28;20048;-66
2021/01/11 12:42:54;;;;;;;28.08;15.90;;;;;;;5.77;54.52;101141.31;5018220;28;20091;-66